Terminal Aerodrome Forecast
Issued by NWS Sterling, VA

Current Version | Previous Version | Graphics & Text | Print | Product List | Glossary Off
Versions: 1 2 3 4 5 6 7 8 9 10 11 12 13 14

132
FTUS41 KLWX 240537
TAFMRB
TAF
KMRB 240537Z 2406/2506 16004KT P6SM FEW110 SCT250
     FM240800 17005KT P6SM FEW110 SCT250 WS020/20030KT
     FM241100 18004KT P6SM SCT100 OVC150
     FM241200 18004KT P6SM -FZRA BKN090 OVC100
     FM241300 18004KT P6SM -RA SCT080 OVC090
     FM241500 18006KT P6SM SCT025 OVC050
     FM241900 19010G17KT P6SM BKN050 BKN060
     FM250000 21006KT P6SM SCT045 BKN250=

USA.gov is the U.S. government's official web portal to all federal, state and local government web resources and services.